Campo (448) Station Data

Red Flag Warning: Yes
Fire Weather Zone: 258
SDGE Region: Mountain Empire
Lat/Lon: 32.599/-116.493

Observations

Time Wind Speed/Gust Temp(F) RH Fuel Moist Fuel Temp(F) Dewpt(F) Tmax(F) Tmin(F) Accum Precip 10-min Precip SL Press(mb)
6/27 5:00pm 225 10 G 20 92° 7% - - 20° 95.7° 57.4° - - -
6/27 4:50pm 224 12 G 23 92° 7% - - 20° 95.7° 57.4° - - -
6/27 4:40pm 219 11 G 19 92° 7% - - 20° 95.7° 57.4° - - -
6/27 4:30pm 220 11 G 21 93° 6% - - 18° 95.7° 57.4° - - -
6/27 4:20pm 218 12 G 21 93° 6% - - 18° 95.7° 57.4° - - -
6/27 4:10pm 216 14 G 22 93° 7% - - 19° 95.7° 57.4° - - -
6/27 4:00pm 218 13 G 24 93° 7% - - 18° 95.7° 57.4° - - -
6/27 3:50pm 220 14 G 24 93° 7% - - 20° 95.7° 57.4° - - -
6/27 3:40pm 216 15 G 25 93° 7% - - 19° 95.7° 57.4° - - -
6/27 3:30pm 228 11 G 21 94° 7% - - 20° 95.7° 57.4° - - -
6/27 3:20pm 226 12 G 20 94° 7% - - 20° 95.7° 57.4° - - -
6/27 3:10pm 234 10 G 19 93° 7% - - 20° 95.7° 57.4° - - -
6/27 3:00pm 235 10 G 18 94° 8% - - 22° 95.7° 57.4° - - -
6/27 2:50pm 224 13 G 23 94° 8% - - 22° 95.7° 57.4° - - -
6/27 2:40pm 224 12 G 24 94° 7% - - 21° 95.7° 57.4° - - -
6/27 2:30pm 229 11 G 20 95° 7% - - 22° 95.7° 57.4° - - -
6/27 2:20pm 224 10 G 20 94° 8% - - 23° 95.7° 57.4° - - -
6/27 2:10pm 217 13 G 23 94° 8% - - 23° 95.7° 57.4° - - -
6/27 2:00pm 222 14 G 23 94° 8% - - 23° 95.7° 57.4° - - -
6/27 1:50pm 222 11 G 23 95° 8% - - 23° 95.7° 57.4° - - -
6/27 1:40pm 218 14 G 21 95° 8% - - 24° 95.7° 57.4° - - -
6/27 1:30pm 215 14 G 23 95° 7% - - 22° 95.7° 57.4° - - -
6/27 1:20pm 220 11 G 21 94° 7% - - 21° 95.5° 57.4° - - -
6/27 1:10pm 215 13 G 22 94° 7% - - 21° 95.5° 57.4° - - -
6/27 1:00pm 217 14 G 24 94° 7% - - 21° 95.5° 57.4° - - -
6/27 12:50pm 214 13 G 21 95° 7% - - 20° 95.5° 57.4° - - -
6/27 12:40pm 215 14 G 24 94° 7% - - 20° 95.5° 57.4° - - -
6/27 12:30pm 219 13 G 22 94° 7% - - 21° 95.5° 57.4° - - -
6/27 12:20pm 217 14 G 25 93° 7% - - 21° 95.5° 57.4° - - -
6/27 12:10pm 217 12 G 20 94° 7% - - 21° 95.5° 57.4° - - -
6/27 12:00pm 214 13 G 22 93° 7% - - 21° 94.2° 57.4° - - -
6/27 11:50am 218 13 G 20 93° 7% - - 21° 94.2° 57.4° - - -
6/27 11:40am 217 12 G 21 93° 7% - - 21° 94.2° 57.4° - - -
6/27 11:30am 215 12 G 20 92° 7% - - 21° 93.3° 57.4° - - -
6/27 11:20am 227 11 G 18 92° 8% - - 21° 93° 57.4° - - -
6/27 11:10am 221 10 G 20 92° 7% - - 21° 93° 57.4° - - -
6/27 11:00am 233 7 G 17 92° 8% - - 21° 93° 57.4° - - -
6/27 10:50am 227 8 G 14 91° 8% - - 21° 92° 57.4° - - -
6/27 10:40am 226 9 G 16 91° 8% - - 21° 92° 57.4° - - -
6/27 10:30am 216 9 G 16 91° 8% - - 22° 91.9° 57.4° - - -
6/27 10:20am 216 8 G 13 90° 8% - - 21° 91.1° 57.4° - - -
6/27 10:10am 218 8 G 14 90° 8% - - 21° 91.1° 57.4° - - -
6/27 10:00am 215 8 G 14 90° 8% - - 21° 90.6° 57.4° - - -
6/27 9:50am 210 8 G 12 89° 8% - - 21° 90.1° 57.4° - - -
6/27 9:40am 213 8 G 16 89° 8% - - 21° 89.5° 57.4° - - -
6/27 9:30am 207 8 G 12 88° 8% - - 21° 88.5° 57.4° - - -
6/27 9:20am 215 9 G 14 88° 9% - - 21° 88.3° 57.4° - - -
6/27 9:10am 215 7 G 12 87° 10% - - 24° 87.7° 57.4° - - -
6/27 9:00am 219 6 G 10 86° 11% - - 25° 86.7° 57.4° - - -
6/27 8:50am 240 4 G 8 84° 13% - - 28° 84.8° 57.4° - - -
6/27 8:40am 226 2 G 5 82° 15% - - 29° 83° 57.4° - - -
6/27 8:30am 225 2 G 3 81° 14% - - 27° 81.7° 57.4° - - -
6/27 8:20am 193 1 G 2 81° 14% - - 27° 81.1° 57.4° - - -
6/27 8:10am 93 1 G 3 79° 16% - - 30° 80.5° 57.4° - - -
6/27 8:00am 62 2 G 3 75° 19% - - 30° 76.7° 57.4° - - -
6/27 7:50am 47 3 G 4 73° 20% - - 30° 73.6° 57.4° - - -
6/27 7:40am 53 4 G 5 70° 22% - - 29° 72.1° 57.4° - - -
6/27 7:30am 52 5 G 6 68° 23% - - 28° 72.1° 57.4° - - -
6/27 7:20am 38 5 G 7 65° 25% - - 28° 72.1° 57.4° - - -
6/27 7:10am 37 5 G 7 63° 25% - - 27° 72.1° 57.4° - - -
6/27 7:00am 41 6 G 8 61° 26% - - 26° 72.1° 57.4° - - -
6/27 6:50am 37 8 G 11 60° 27% - - 25° 72.1° 57.4° - - -
6/27 6:40am 34 8 G 10 59° 26% - - 25° 72.1° 57.4° - - -
6/27 6:30am 33 8 G 11 59° 26% - - 24° 72.1° 57.4° - - -
6/27 6:20am 23 8 G 11 59° 25% - - 23° 72.1° 57.4° - - -
6/27 6:10am 24 7 G 11 58° 26% - - 23° 72.1° 57.4° - - -
6/27 6:00am 21 7 G 10 59° 24% - - 23° 72.1° 58.2° - - -
6/27 5:50am 29 8 G 10 60° 24% - - 23° 72.1° 58.2° - - -
6/27 5:40am 26 8 G 10 59° 24% - - 22° 72.1° 58.2° - - -
6/27 5:30am 24 8 G 10 59° 24% - - 22° 72.1° 58.2° - - -
6/27 5:20am 28 8 G 11 59° 24% - - 22° 72.1° 58.2° - - -
6/27 5:10am 30 7 G 9 59° 24% - - 22° 72.1° 58.2° - - -
6/27 5:00am 29 6 G 8 59° 23% - - 22° 72.1° 58.2° - - -
6/27 4:50am 32 6 G 9 59° 23% - - 22° 72.1° 58.2° - - -
6/27 4:40am 28 6 G 9 59° 24% - - 22° 72.1° 58.2° - - -
6/27 4:30am 38 5 G 8 59° 24% - - 22° 72.1° 58.2° - - -
6/27 4:20am 27 6 G 9 61° 21% - - 21° 72.1° 60.2° - - -
6/27 4:10am 29 6 G 8 61° 21% - - 21° 72.1° 60.2° - - -
6/27 4:00am 25 7 G 10 62° 21% - - 21° 72.1° 60.2° - - -
6/27 3:50am 31 6 G 9 61° 22% - - 21° 72.1° 60.2° - - -
6/27 3:40am 26 6 G 9 62° 21% - - 21° 72.1° 61.1° - - -
6/27 3:30am 29 6 G 9 62° 21% - - 21° 72.1° 61.1° - - -
6/27 3:20am 36 6 G 10 62° 21% - - 21° 72.1° 61.1° - - -
6/27 3:10am 22 9 G 13 63° 20% - - 21° 72.1° 61.1° - - -
6/27 3:00am 24 7 G 11 62° 22% - - 22° 72.1° 61.1° - - -
6/27 2:50am 37 4 G 7 62° 21% - - 22° 72.1° 61.7° - - -
6/27 2:40am 37 5 G 9 64° 19% - - 21° 72.1° 62.3° - - -
6/27 2:30am 28 7 G 12 64° 19% - - 21° 72.1° 62.3° - - -
6/27 2:20am 30 6 G 8 63° 21% - - 22° 72.1° 62.3° - - -
6/27 2:10am 32 6 G 8 64° 20% - - 22° 72.1° 63.3° - - -
6/27 2:00am 37 5 G 6 64° 20% - - 22° 72.1° 63.5° - - -
6/27 1:50am 33 5 G 7 64° 20% - - 23° 72.1° 63.8° - - -
6/27 1:40am 31 4 G 6 65° 19% - - 22° 72.1° 64.2° - - -
6/27 1:30am 29 4 G 6 65° 19% - - 22° 72.1° 64.2° - - -
6/27 1:20am 31 4 G 8 65° 20% - - 23° 72.1° 64.2° - - -
6/27 1:10am 33 4 G 7 65° 20% - - 23° 72.1° 64.5° - - -
6/27 1:00am 30 4 G 7 66° 19% - - 23° 72.1° 65.5° - - -
6/27 12:50am 27 4 G 6 69° 15% - - 20° 72.1° 66.9° - - -
6/27 12:40am 42 5 G 6 68° 18% - - 22° 72.1° 66.9° - - -
6/27 12:30am 34 4 G 5 68° 17% - - 22° 72.1° 67.3° - - -
6/27 12:20am 33 3 G 5 68° 17% - - 22° 72.1° 67.3° - - -
6/27 12:10am 22 2 G 4 70° 15% - - 21° 72.1° 68.6° - - -
6/27 12:00am 42 2 G 4 73° 13% - - 20° 102.5° 64.7° - - -
6/26 11:50pm 41 1 G 3 75° 12% - - 20° 102.5° 64.7° - - -
6/26 11:40pm 62 1 G 3 77° 11% - - 19° 102.5° 64.7° - - -
6/26 11:30pm 92 2 G 4 76° 12% - - 19° 102.5° 64.7° - - -
6/26 11:20pm 64 2 G 3 77° 12% - - 20° 102.5° 64.7° - - -
6/26 11:10pm 57 2 G 4 77° 12% - - 20° 102.5° 64.7° - - -
6/26 11:00pm 47 3 G 7 78° 11% - - 20° 102.5° 64.7° - - -
6/26 10:50pm 91 4 G 8 81° 10% - - 20° 102.5° 64.7° - - -
6/26 10:40pm 147 2 G 4 80° 11% - - 21° 102.5° 64.7° - - -
6/26 10:30pm 200 3 G 8 80° 12% - - 23° 102.5° 64.7° - - -
6/26 10:20pm 215 3 G 7 80° 13% - - 24° 102.5° 64.7° - - -
6/26 10:10pm 219 3 G 6 79° 14% - - 26° 102.5° 64.7° - - -
6/26 10:00pm 147 1 G 3 79° 15% - - 27° 102.5° 64.7° - - -
6/26 9:50pm 124 0 G 3 78° 16% - - 28° 102.5° 64.7° - - -
6/26 9:40pm 39 1 G 3 77° 16% - - 28° 102.5° 64.7° - - -
6/26 9:30pm 46 1 G 2 77° 15% - - 26° 102.5° 64.7° - - -
6/26 9:20pm 31 1 G 2 78° 14% - - 25° 102.5° 64.7° - - -
6/26 9:10pm 35 1 G 2 81° 13% - - 26° 102.5° 64.7° - - -
6/26 9:00pm 62 1 G 2 83° 12% - - 25° 102.5° 64.7° - - -
6/26 8:50pm 139 1 G 4 83° 12% - - 24° 102.5° 64.7° - - -
6/26 8:40pm 185 1 G 4 84° 11% - - 24° 102.5° 64.7° - - -
6/26 8:30pm 216 1 G 4 85° 10% - - 23° 102.5° 64.7° - - -
6/26 8:20pm 224 2 G 7 86° 10% - - 24° 102.5° 64.7° - - -
6/26 8:10pm 245 3 G 10 87° 10% - - 24° 102.5° 64.7° - - -
6/26 8:00pm 268 3 G 8 88° 10% - - 25° 102.5° 64.7° - - -
6/26 7:50pm 302 3 G 7 88° 10% - - 26° 102.5° 64.7° - - -
6/26 7:40pm 334 3 G 7 89° 10% - - 26° 102.5° 64.7° - - -
6/26 7:30pm 293 2 G 6 91° 9% - - 25° 102.5° 64.7° - - -
6/26 7:20pm 251 3 G 8 92° 9% - - 25° 102.5° 64.7° - - -
6/26 7:10pm 260 3 G 10 92° 9% - - 25° 102.5° 64.7° - - -
6/26 7:00pm 265 3 G 9 93° 8% - - 25° 102.5° 64.7° - - -
6/26 6:50pm 299 5 G 13 93° 8% - - 24° 102.5° 64.7° - - -
6/26 6:40pm 294 5 G 12 94° 8% - - 24° 102.5° 64.7° - - -
6/26 6:30pm 308 6 G 18 94° 8% - - 24° 102.5° 64.7° - - -
6/26 6:20pm 312 8 G 16 95° 8% - - 24° 102.5° 64.7° - - -
6/26 6:10pm 292 7 G 17 95° 8% - - 24° 102.5° 64.7° - - -
6/26 6:00pm 297 6 G 15 96° 8% - - 25° 102.5° 64.7° - - -
6/26 5:50pm 289 6 G 15 96° 8% - - 26° 102.5° 64.7° - - -
6/26 5:40pm 303 7 G 18 97° 8% - - 26° 102.5° 64.7° - - -
6/26 5:30pm 295 6 G 17 97° 8% - - 27° 102.5° 64.7° - - -
6/26 5:20pm 284 5 G 12 98° 8% - - 28° 102.5° 64.7° - - -
6/26 5:10pm 300 6 G 15 99° 8% - - 26° 102.5° 64.7° - - -
6/26 5:00pm 288 4 G 12 99° 8% - - 26° 102.5° 64.7° - - -
6/26 4:50pm 272 5 G 20 99° 8% - - 27° 102.5° 64.7° - - -
6/26 4:40pm 285 6 G 13 99° 8% - - 28° 102.5° 64.7° - - -
6/26 4:30pm 296 6 G 15 100° 8% - - 28° 102.5° 64.7° - - -
6/26 4:20pm 301 5 G 14 100° 8% - - 28° 102.5° 64.7° - - -
6/26 4:10pm 290 5 G 15 100° 8% - - 27° 102.5° 64.7° - - -
6/26 4:00pm 265 6 G 13 100° 8% - - 27° 102.5° 64.7° - - -
6/26 3:50pm 249 6 G 16 100° 8% - - 28° 102.5° 64.7° - - -
6/26 3:40pm 250 6 G 18 100° 8% - - 27° 102.5° 64.7° - - -
6/26 3:30pm 238 7 G 14 101° 8% - - 27° 102.5° 64.7° - - -
6/26 3:20pm 252 6 G 15 101° 8% - - 27° 102.5° 64.7° - - -
6/26 3:10pm 269 5 G 15 102° 8% - - 28° 102.5° 64.7° - - -
6/26 3:00pm 283 6 G 16 101° 7% - - 27° 102.4° 64.7° - - -
6/26 2:50pm 276 7 G 16 101° 7% - - 27° 102.4° 64.7° - - -
6/26 2:40pm 278 5 G 15 102° 8% - - 29° 102.4° 64.7° - - -
6/26 2:30pm 242 5 G 14 101° 8% - - 28° 102.4° 64.7° - - -
6/26 2:20pm 238 8 G 16 100° 8% - - 27° 102.4° 64.7° - - -
6/26 2:10pm 252 6 G 13 100° 8% - - 28° 102.4° 64.7° - - -
6/26 2:00pm 260 5 G 14 100° 8% - - 28° 102.4° 64.7° - - -
6/26 1:50pm 304 6 G 16 101° 8% - - 28° 102.4° 64.7° - - -
6/26 1:40pm 304 5 G 12 100° 7% - - 26° 102.4° 64.7° - - -
6/26 1:30pm 293 5 G 13 99° 8% - - 27° 102.4° 64.7° - - -
6/26 1:20pm 261 7 G 14 100° 8% - - 27° 102.4° 64.7° - - -
6/26 1:10pm 290 6 G 15 100° 7% - - 26° 102.4° 64.7° - - -
6/26 1:00pm 297 7 G 14 101° 7% - - 26° 102.4° 64.7° - - -
6/26 12:50pm 293 6 G 16 100° 7% - - 26° 102.4° 64.7° - - -
6/26 12:40pm 298 6 G 14 100° 7% - - 25° 102.4° 64.7° - - -
6/26 12:30pm 262 6 G 12 100° 7% - - 25° 102.4° 64.7° - - -
6/26 12:20pm 284 5 G 10 101° 7% - - 25° 102.4° 64.7° - - -
6/26 12:10pm 305 6 G 16 102° 7% - - 25° 102.4° 64.7° - - -
6/26 12:00pm 301 6 G 13 101° 7% - - 25° 102.3° 64.7° - - -
6/26 11:50am 316 6 G 15 100° 7% - - 25° 101.3° 64.7° - - -
6/26 11:40am 296 4 G 12 100° 7% - - 26° 101.3° 64.7° - - -
6/26 11:30am 337 6 G 15 98° 8% - - 26° 98.8° 64.7° - - -
6/26 11:20am 296 6 G 14 98° 8% - - 27° 98.3° 64.7° - - -
6/26 11:10am 314 5 G 13 98° 9% - - 29° 98.3° 64.7° - - -
6/26 11:00am 218 6 G 15 97° 10% - - 31° 98.1° 64.7° - - -
6/26 10:50am 211 7 G 12 97° 10% - - 31° 97.3° 64.7° - - -
6/26 10:40am 208 6 G 10 96° 10% - - 32° 97° 64.7° - - -
6/26 10:30am 227 6 G 12 96° 10% - - 32° 96.9° 64.7° - - -
6/26 10:20am 219 6 G 10 95° 11% - - 31° 96.9° 64.7° - - -
6/26 10:10am 228 6 G 12 95° 11% - - 31° 96.9° 64.7° - - -
6/26 10:00am 224 5 G 15 96° 10% - - 31° 96.9° 64.7° - - -
6/26 9:50am 229 5 G 10 94° 11% - - 31° 95.2° 64.7° - - -
6/26 9:40am 218 4 G 9 95° 10% - - 30° 95.2° 64.7° - - -
6/26 9:30am 216 3 G 6 94° 11% - - 32° 94.5° 64.7° - - -
6/26 9:20am 197 1 G 4 92° 13% - - 34° 93.2° 64.7° - - -
6/26 9:10am 213 2 G 3 90° 14% - - 34° 90.7° 64.7° - - -
6/26 9:00am 210 2 G 3 90° 14% - - 34° 90.7° 64.7° - - -
6/26 8:50am 25 1 G 3 90° 13% - - 33° 90.7° 64.7° - - -
6/26 8:40am 9 3 G 5 87° 16% - - 35° 88.5° 64.7° - - -
6/26 8:30am 21 4 G 5 84° 20% - - 38° 85° 64.7° - - -
6/26 8:20am 30 5 G 6 81° 22% - - 38° 82.4° 64.7° - - -
6/26 8:10am 32 4 G 5 78° 23% - - 38° 79.4° 64.7° - - -
6/26 8:00am 24 5 G 7 79° 22% - - 36° 78.8° 64.7° - - -
6/26 7:50am 27 5 G 7 78° 23% - - 37° 78.7° 64.7° - - -
6/26 7:40am 33 5 G 8 76° 24% - - 36° 76.8° 64.7° - - -
6/26 7:30am 40 6 G 8 73° 25% - - 35° 74.4° 64.7° - - -
6/26 7:20am 62 5 G 7 73° 25% - - 35° 73° 64.7° - - -
6/26 7:10am 49 7 G 9 70° 27% - - 35° 72° 64.7° - - -
6/26 7:00am 37 8 G 11 68° 29% - - 35° 69.2° 64.7° - - -
6/26 6:50am 27 8 G 11 67° 30% - - 34° 69.2° 64.7° - - -
6/26 6:40am 29 7 G 8 66° 31% - - 34° 69.2° 64.7° - - -
6/26 6:30am 29 6 G 9 66° 30% - - 34° 69.2° 64.7° - - -
6/26 6:20am 26 7 G 9 66° 29% - - 33° 69.2° 64.7° - - -
6/26 6:10am 27 6 G 8 66° 29% - - 33° 69.2° 64.7° - - -
6/26 6:00am 29 6 G 9 66° 29% - - 33° 69.2° 64.7° - - -